createdAt,value
2022-09-15T00:01:52.143Z,11.89
2022-09-15T00:04:18.915Z,11.88
2022-09-15T00:06:45.569Z,11.87
2022-09-15T00:09:12.229Z,11.88
2022-09-15T00:11:39.258Z,11.87
2022-09-15T00:14:07.257Z,11.88
2022-09-15T00:16:33.880Z,11.85
2022-09-15T00:19:00.920Z,11.88
2022-09-15T00:21:28.794Z,11.88
2022-09-15T00:23:55.512Z,11.90
2022-09-15T00:26:23.703Z,11.90
2022-09-15T00:28:50.498Z,11.91
2022-09-15T00:31:18.784Z,11.91
2022-09-15T00:33:48.885Z,11.92
2022-09-15T00:36:16.192Z,11.92
2022-09-15T00:38:43.174Z,11.95
2022-09-15T00:41:11.415Z,11.96
2022-09-15T00:43:48.552Z,11.98
2022-09-15T00:46:15.946Z,12.00
2022-09-15T00:48:45.828Z,11.98
2022-09-15T00:51:14.758Z,11.97
2022-09-15T00:53:41.544Z,11.97
2022-09-15T00:56:10.005Z,11.96
2022-09-15T00:58:44.017Z,11.97
2022-09-15T01:01:12.472Z,11.95
2022-09-15T01:03:39.169Z,11.97
2022-09-15T01:06:15.566Z,11.97
2022-09-15T01:08:42.141Z,11.97
2022-09-15T01:11:08.842Z,11.95
2022-09-15T01:13:35.675Z,11.92
2022-09-15T01:16:08.713Z,11.91
2022-09-15T01:18:58.554Z,11.88
2022-09-15T01:21:25.084Z,11.85
2022-09-15T01:24:00.637Z,11.82
2022-09-15T01:26:46.579Z,11.79
2022-09-15T01:29:32.009Z,11.78
2022-09-15T01:32:30.115Z,11.79
2022-09-15T01:35:03.276Z,11.78
2022-09-15T01:37:32.654Z,11.75
2022-09-15T01:40:00.939Z,11.69
2022-09-15T01:42:29.853Z,11.43
2022-09-15T01:45:00.987Z,11.17
2022-09-15T01:47:29.608Z,10.93
2022-09-15T01:50:17.622Z,10.76
2022-09-15T01:52:46.999Z,10.61
2022-09-15T01:55:18.356Z,10.54
2022-09-15T01:57:45.554Z,10.49
2022-09-15T02:00:12.401Z,10.41
2022-09-15T02:02:45.280Z,10.32
2022-09-15T02:05:30.771Z,10.22
2022-09-15T02:08:19.385Z,10.19
2022-09-15T02:10:50.468Z,10.16
2022-09-15T02:13:20.933Z,10.12
2022-09-15T02:15:53.561Z,10.07
2022-09-15T02:18:49.537Z,9.97
2022-09-15T02:21:19.753Z,9.91
2022-09-15T02:23:51.216Z,9.91
2022-09-15T02:26:19.653Z,9.90
2022-09-15T02:28:48.172Z,9.87
2022-09-15T02:31:16.665Z,9.85
2022-09-15T02:33:46.710Z,9.83
2022-09-15T02:36:15.107Z,9.85
2022-09-15T02:38:50.658Z,9.85
2022-09-15T02:41:17.481Z,9.86
2022-09-15T02:43:44.558Z,9.88
2022-09-15T02:46:11.113Z,9.89
2022-09-15T02:48:37.747Z,9.89
2022-09-15T02:51:04.310Z,9.89
2022-09-15T02:53:30.913Z,9.89
2022-09-15T02:55:58.061Z,9.89
2022-09-15T02:58:24.713Z,9.89
2022-09-15T03:00:52.743Z,9.90
2022-09-15T03:03:22.046Z,9.87
2022-09-15T03:05:48.586Z,9.84
2022-09-15T03:08:15.145Z,9.85
2022-09-15T03:10:41.766Z,9.86
2022-09-15T03:13:08.656Z,9.86
2022-09-15T03:15:35.329Z,9.85
2022-09-15T03:18:02.111Z,9.86
2022-09-15T03:20:28.984Z,9.84
2022-09-15T03:22:56.039Z,9.83
2022-09-15T03:25:23.547Z,9.82
2022-09-15T03:27:50.111Z,9.81
2022-09-15T03:30:16.810Z,9.82
2022-09-15T03:32:43.345Z,9.79
2022-09-15T03:35:10.166Z,9.79
2022-09-15T03:37:37.260Z,9.80
2022-09-15T03:40:04.346Z,9.79
2022-09-15T03:42:31.042Z,9.77
2022-09-15T03:44:57.666Z,9.79
2022-09-15T03:47:24.209Z,9.75
2022-09-15T03:49:50.849Z,9.75
2022-09-15T03:52:17.455Z,9.75
2022-09-15T03:54:44.250Z,9.74
2022-09-15T03:57:11.370Z,9.75
2022-09-15T03:59:38.099Z,9.73
2022-09-15T04:02:04.692Z,9.77
2022-09-15T04:04:32.111Z,9.80
2022-09-15T04:06:58.681Z,9.82
2022-09-15T04:09:26.678Z,9.79
2022-09-15T04:11:53.247Z,9.78
2022-09-15T04:14:19.814Z,9.75
2022-09-15T04:16:46.552Z,9.75
2022-09-15T04:19:13.722Z,9.75
2022-09-15T04:21:40.375Z,9.70
2022-09-15T04:24:07.013Z,9.65
2022-09-15T04:26:35.085Z,9.62
2022-09-15T04:29:04.499Z,9.56
2022-09-15T04:31:32.391Z,9.55
2022-09-15T04:34:02.290Z,9.56
2022-09-15T04:36:29.273Z,9.58
2022-09-15T04:38:56.532Z,9.61
2022-09-15T04:41:23.185Z,9.63
2022-09-15T04:43:50.135Z,9.62
2022-09-15T04:46:18.098Z,9.65
2022-09-15T04:48:46.093Z,9.65
2022-09-15T04:51:14.806Z,9.61
2022-09-15T04:53:41.884Z,9.60
2022-09-15T04:56:09.989Z,9.60
2022-09-15T04:58:40.072Z,9.60
2022-09-15T05:01:07.373Z,9.59
2022-09-15T05:03:35.138Z,9.57
2022-09-15T05:06:01.803Z,9.55
2022-09-15T05:08:28.414Z,9.53
2022-09-15T05:10:58.804Z,9.51
2022-09-15T05:13:25.345Z,9.44
2022-09-15T05:15:51.919Z,9.41
2022-09-15T05:18:18.517Z,9.41
2022-09-15T05:20:45.034Z,9.42
2022-09-15T05:23:11.652Z,9.40
2022-09-15T05:25:38.861Z,9.38
2022-09-15T05:28:05.704Z,9.41
2022-09-15T05:30:38.022Z,9.41
2022-09-15T05:33:06.278Z,9.42
2022-09-15T05:35:32.829Z,9.46
2022-09-15T05:37:59.387Z,9.47
2022-09-15T05:40:25.950Z,9.48
2022-09-15T05:42:52.833Z,9.46
2022-09-15T05:45:19.405Z,9.48
2022-09-15T05:47:45.998Z,9.52
2022-09-15T05:50:12.964Z,9.55
2022-09-15T05:52:39.945Z,9.53
2022-09-15T05:55:06.633Z,9.53
2022-09-15T05:57:33.192Z,9.55
2022-09-15T05:59:59.779Z,9.54
2022-09-15T06:02:26.343Z,9.52
2022-09-15T06:04:53.017Z,9.58
2022-09-15T06:07:19.603Z,9.59
2022-09-15T06:09:46.419Z,9.57
2022-09-15T06:12:12.971Z,9.59
2022-09-15T06:14:39.611Z,9.60
2022-09-15T06:17:06.150Z,9.59
2022-09-15T06:19:33.441Z,9.58
2022-09-15T06:22:00.019Z,9.60
2022-09-15T06:24:26.560Z,9.59
2022-09-15T06:26:53.251Z,9.61
2022-09-15T06:29:20.045Z,9.60
2022-09-15T06:31:46.621Z,9.66
2022-09-15T06:34:13.210Z,9.64
2022-09-15T06:36:40.424Z,9.66
2022-09-15T06:39:07.242Z,9.67
2022-09-15T06:41:58.281Z,9.63
2022-09-15T06:44:21.088Z,9.65
2022-09-15T06:46:48.269Z,9.63
2022-09-15T06:49:14.936Z,9.66
2022-09-15T06:51:42.030Z,9.63
2022-09-15T06:54:08.647Z,9.64
2022-09-15T06:56:38.139Z,9.67
2022-09-15T06:59:05.246Z,9.68
2022-09-15T07:01:32.676Z,9.69
2022-09-15T07:04:01.019Z,9.77
2022-09-15T07:06:28.361Z,9.82
2022-09-15T07:08:55.007Z,9.86
2022-09-15T07:11:21.586Z,9.88
2022-09-15T07:13:51.372Z,9.92
2022-09-15T07:16:19.145Z,9.93
2022-09-15T07:18:46.286Z,9.97
2022-09-15T07:21:14.281Z,10.03
2022-09-15T07:23:41.416Z,10.03
2022-09-15T07:26:12.239Z,10.05
2022-09-15T07:28:39.657Z,10.06
2022-09-15T07:31:07.423Z,10.04
2022-09-15T07:33:34.780Z,10.08
2022-09-15T07:36:02.665Z,10.11
2022-09-15T07:38:29.394Z,10.13
2022-09-15T07:41:02.122Z,10.17
2022-09-15T07:43:28.722Z,10.20
2022-09-15T07:45:57.230Z,10.19
2022-09-15T07:48:26.495Z,10.23
2022-09-15T07:50:53.494Z,10.28
2022-09-15T07:53:20.747Z,10.34
2022-09-15T07:55:52.311Z,10.34
2022-09-15T07:58:21.840Z,10.34
2022-09-15T08:00:49.141Z,10.35
2022-09-15T08:03:16.567Z,10.40
2022-09-15T08:05:45.602Z,10.38
2022-09-15T08:08:12.749Z,10.41
2022-09-15T08:10:42.626Z,10.41
2022-09-15T08:13:09.164Z,10.41
2022-09-15T08:15:38.827Z,10.34
2022-09-15T08:18:05.880Z,10.35
2022-09-15T08:20:32.860Z,10.36
2022-09-15T08:22:59.412Z,10.38
2022-09-15T08:25:26.042Z,10.42
2022-09-15T08:27:53.617Z,10.44
2022-09-15T08:30:21.083Z,10.41
2022-09-15T08:32:47.793Z,10.41
2022-09-15T08:35:15.993Z,10.46
2022-09-15T08:37:42.769Z,10.38
2022-09-15T08:40:21.009Z,10.41
2022-09-15T08:42:50.470Z,10.47
2022-09-15T08:45:23.137Z,10.54
2022-09-15T08:47:51.976Z,10.52
2022-09-15T08:50:31.132Z,10.58
2022-09-15T08:53:03.292Z,10.52
2022-09-15T08:55:37.071Z,10.57
2022-09-15T08:58:04.575Z,10.60
2022-09-15T09:00:32.126Z,10.65
2022-09-15T09:02:58.894Z,10.70
2022-09-15T09:05:34.413Z,10.76
2022-09-15T09:08:09.898Z,10.73
2022-09-15T09:10:36.439Z,10.81
2022-09-15T09:13:21.725Z,10.74
2022-09-15T09:15:51.167Z,10.78
2022-09-15T09:18:29.869Z,10.84
2022-09-15T09:21:02.330Z,10.88
2022-09-15T09:23:31.131Z,10.90
2022-09-15T09:25:58.720Z,10.95
2022-09-15T09:28:32.400Z,10.88
2022-09-15T09:31:01.886Z,10.85
2022-09-15T09:33:31.538Z,10.86
2022-09-15T09:35:59.971Z,10.93
2022-09-15T09:38:28.881Z,10.99
2022-09-15T09:41:00.006Z,11.02
2022-09-15T09:43:29.649Z,11.02
2022-09-15T09:45:56.537Z,11.09
2022-09-15T09:48:27.057Z,11.13
2022-09-15T09:50:54.975Z,11.05
2022-09-15T09:53:28.904Z,11.10
2022-09-15T09:56:14.497Z,11.13
2022-09-15T09:58:41.077Z,11.17
2022-09-15T10:01:18.250Z,11.24
2022-09-15T10:03:45.610Z,11.25
2022-09-15T10:06:15.661Z,11.25
2022-09-15T10:08:56.624Z,11.24
2022-09-15T10:11:38.386Z,11.27
2022-09-15T10:14:05.043Z,11.27
2022-09-15T10:16:32.385Z,11.26
2022-09-15T10:18:59.292Z,11.27
2022-09-15T10:21:26.084Z,11.23
2022-09-15T10:23:52.731Z,11.27
2022-09-15T10:26:21.172Z,11.32
2022-09-15T10:29:06.459Z,11.31
2022-09-15T10:31:33.136Z,11.33
2022-09-15T10:34:19.684Z,11.36
2022-09-15T10:36:46.420Z,11.39
2022-09-15T10:39:21.782Z,11.41
2022-09-15T10:42:04.540Z,11.43
2022-09-15T10:44:31.145Z,11.39
2022-09-15T10:46:57.704Z,11.33
2022-09-15T10:49:42.872Z,11.27
2022-09-15T10:52:09.394Z,11.26
2022-09-15T10:54:39.234Z,11.30
2022-09-15T10:57:24.489Z,11.33
2022-09-15T10:59:53.845Z,11.35
2022-09-15T11:02:27.971Z,11.32
2022-09-15T11:05:00.728Z,11.24
2022-09-15T11:07:27.327Z,11.25
2022-09-15T11:09:54.324Z,11.23
2022-09-15T11:12:29.222Z,11.20
2022-09-15T11:15:02.319Z,11.19
2022-09-15T11:17:43.914Z,11.20
2022-09-15T11:20:23.117Z,11.19
2022-09-15T11:23:08.546Z,11.20
2022-09-15T11:25:40.585Z,11.20
2022-09-15T11:28:18.021Z,11.11
2022-09-15T11:30:48.255Z,11.12
2022-09-15T11:33:37.357Z,11.04
2022-09-15T11:36:09.665Z,11.02
2022-09-15T11:38:36.156Z,11.00
2022-09-15T11:41:10.220Z,11.04
2022-09-15T11:43:46.042Z,11.04
2022-09-15T11:46:19.244Z,11.03
2022-09-15T11:48:50.334Z,11.04
2022-09-15T11:51:19.626Z,11.13
2022-09-15T11:53:50.644Z,11.14
2022-09-15T11:56:20.540Z,11.19
2022-09-15T11:59:05.399Z,11.27
2022-09-15T12:01:44.039Z,11.44
2022-09-15T12:04:13.590Z,11.63
2022-09-15T12:06:58.033Z,11.64
2022-09-15T12:09:24.830Z,11.70
2022-09-15T12:12:03.000Z,11.78
2022-09-15T12:14:29.574Z,11.89
2022-09-15T12:16:57.824Z,12.07
2022-09-15T12:19:36.609Z,12.25
2022-09-15T12:22:09.085Z,12.37
2022-09-15T12:24:44.046Z,12.46
2022-09-15T12:27:17.718Z,12.39
2022-09-15T12:29:54.795Z,12.41
2022-09-15T12:32:21.348Z,12.52
2022-09-15T12:35:03.652Z,12.65
2022-09-15T12:37:36.368Z,12.67
2022-09-15T12:40:05.933Z,12.86
2022-09-15T12:42:34.658Z,12.78
2022-09-15T12:45:21.476Z,12.80
2022-09-15T12:47:51.796Z,12.82
2022-09-15T12:50:27.365Z,12.72
2022-09-15T12:52:59.050Z,12.70
2022-09-15T12:55:36.515Z,12.74
2022-09-15T12:58:18.319Z,12.76
2022-09-15T13:01:07.114Z,12.63
2022-09-15T13:03:41.299Z,12.51
2022-09-15T13:06:10.949Z,12.47
2022-09-15T13:08:37.483Z,12.34
2022-09-15T13:11:09.446Z,12.24
2022-09-15T13:13:59.049Z,12.28
2022-09-15T13:16:52.206Z,12.24
2022-09-15T13:19:28.155Z,12.29
2022-09-15T13:22:05.111Z,12.27
2022-09-15T13:24:50.184Z,12.39
2022-09-15T13:27:19.898Z,12.54
2022-09-15T13:29:49.344Z,12.53
2022-09-15T13:32:15.896Z,12.58
2022-09-15T13:38:16.940Z,12.60
2022-09-15T13:40:42.721Z,12.63
2022-09-15T13:43:09.450Z,12.63
2022-09-15T13:45:38.867Z,12.71
2022-09-15T13:48:08.554Z,12.73
2022-09-15T13:50:40.299Z,12.72
2022-09-15T13:53:17.594Z,12.70
2022-09-15T13:55:45.553Z,12.64
2022-09-15T14:01:06.949Z,12.57
2022-09-15T14:03:37.022Z,12.63
2022-09-15T14:06:10.781Z,12.67
2022-09-15T14:08:38.471Z,12.73
2022-09-15T14:11:08.559Z,12.79
2022-09-15T14:13:36.561Z,12.88
2022-09-15T14:16:03.407Z,12.87
2022-09-15T14:18:31.390Z,12.89
2022-09-15T14:21:02.151Z,12.80
2022-09-15T14:23:28.980Z,12.70
2022-09-15T14:25:57.085Z,12.66
2022-09-15T14:28:31.299Z,12.67
2022-09-15T14:31:01.870Z,12.67
2022-09-15T14:33:39.557Z,12.70
2022-09-15T14:36:13.741Z,12.74
2022-09-15T14:38:40.316Z,12.77
2022-09-15T14:41:07.450Z,12.79
2022-09-15T14:43:40.367Z,12.76
2022-09-15T14:46:20.951Z,12.76
2022-09-15T14:48:47.619Z,12.76
2022-09-15T14:51:16.974Z,12.84
2022-09-15T14:53:45.043Z,12.85
2022-09-15T14:56:15.514Z,12.83
2022-09-15T14:58:45.532Z,12.85
2022-09-15T15:01:17.248Z,12.86
2022-09-15T15:03:43.902Z,12.90
2022-09-15T15:06:28.786Z,12.89
2022-09-15T15:09:00.834Z,12.99
2022-09-15T15:11:28.410Z,12.99
2022-09-15T15:13:57.064Z,12.96
2022-09-15T15:16:25.070Z,12.90
2022-09-15T15:18:52.089Z,12.86
2022-09-15T15:21:35.822Z,12.80
2022-09-15T15:24:14.445Z,12.69
2022-09-15T15:26:42.273Z,12.68
2022-09-15T15:29:29.039Z,12.62
2022-09-15T15:32:04.465Z,12.58
2022-09-15T15:34:31.105Z,12.45
2022-09-15T15:37:04.681Z,12.45
2022-09-15T15:39:31.599Z,12.35
2022-09-15T15:42:02.713Z,12.26
2022-09-15T15:44:30.173Z,12.17
2022-09-15T15:47:22.827Z,12.12
2022-09-15T15:50:12.414Z,12.07
2022-09-15T15:52:37.304Z,12.01
2022-09-15T15:55:04.444Z,11.98
2022-09-15T15:57:34.929Z,11.96
2022-09-15T16:00:02.417Z,11.88
2022-09-15T16:02:31.097Z,11.83
2022-09-15T16:04:57.765Z,11.83
2022-09-15T16:07:29.902Z,11.81
2022-09-15T16:09:59.815Z,11.81
2022-09-15T16:12:26.425Z,11.79
2022-09-15T16:14:53.166Z,11.71
2022-09-15T16:17:19.737Z,11.72
2022-09-15T16:19:46.277Z,11.67
2022-09-15T16:22:18.316Z,11.64
2022-09-15T16:24:44.864Z,11.64
2022-09-15T16:27:14.920Z,11.60
2022-09-15T16:29:41.592Z,11.60
2022-09-15T16:32:10.274Z,11.56
2022-09-15T16:34:36.841Z,11.51
2022-09-15T16:37:03.378Z,11.46
2022-09-15T16:39:31.496Z,11.40
2022-09-15T16:44:29.486Z,11.24
2022-09-15T16:46:56.602Z,11.19
2022-09-15T16:49:23.295Z,11.17
2022-09-15T16:51:49.907Z,11.09
2022-09-15T16:54:18.159Z,11.05
2022-09-15T16:56:45.710Z,11.06
2022-09-15T16:59:12.544Z,10.97
2022-09-15T17:01:39.740Z,10.97
2022-09-15T17:04:11.546Z,10.91
2022-09-15T17:06:38.232Z,10.88
2022-09-15T17:09:04.871Z,10.84
2022-09-15T17:11:31.729Z,10.83
2022-09-15T17:13:58.268Z,10.76
2022-09-15T17:16:26.383Z,10.76
2022-09-15T17:18:52.931Z,10.76
2022-09-15T17:21:19.859Z,10.75
2022-09-15T17:23:47.992Z,10.71
2022-09-15T17:26:18.016Z,10.69
2022-09-15T17:28:44.597Z,10.74
2022-09-15T17:31:17.326Z,10.75
2022-09-15T17:33:44.351Z,10.66
2022-09-15T17:36:11.607Z,10.58
2022-09-15T17:38:41.258Z,10.49
2022-09-15T17:41:13.123Z,10.44
2022-09-15T17:43:39.673Z,10.42
2022-09-15T17:46:07.018Z,10.38
2022-09-15T17:48:33.908Z,10.34
2022-09-15T17:51:01.571Z,10.25
2022-09-15T17:53:28.453Z,10.19
2022-09-15T17:55:55.605Z,10.13
2022-09-15T17:58:23.005Z,10.07
2022-09-15T18:00:50.041Z,9.97
2022-09-15T18:03:28.061Z,9.84
2022-09-15T18:05:55.898Z,9.77
2022-09-15T18:08:22.875Z,9.75
2022-09-15T18:10:49.464Z,9.73
2022-09-15T18:13:17.661Z,9.68
2022-09-15T18:15:44.518Z,9.61
2022-09-15T18:18:29.591Z,9.54
2022-09-15T18:20:57.884Z,9.51
2022-09-15T18:23:25.636Z,9.56
2022-09-15T18:25:52.526Z,9.64
2022-09-15T18:28:19.576Z,9.69
2022-09-15T18:30:48.035Z,9.75
2022-09-15T18:33:16.370Z,9.75
2022-09-15T18:35:43.543Z,9.72
2022-09-15T18:38:10.791Z,9.71
2022-09-15T18:40:37.601Z,9.69
2022-09-15T18:43:05.489Z,9.69
2022-09-15T18:45:32.016Z,9.71
2022-09-15T18:47:58.624Z,9.74
2022-09-15T18:50:25.613Z,9.74
2022-09-15T18:52:53.033Z,9.72
2022-09-15T18:55:20.614Z,9.69
2022-09-15T18:57:47.543Z,9.65
2022-09-15T19:00:16.068Z,9.61
2022-09-15T19:02:43.204Z,9.60
2022-09-15T19:05:15.372Z,9.57
2022-09-15T19:07:44.810Z,9.55
2022-09-15T19:10:12.147Z,9.53
2022-09-15T19:12:38.877Z,9.50
2022-09-15T19:15:10.666Z,9.48
2022-09-15T19:17:38.317Z,9.45
2022-09-15T19:20:06.816Z,9.44
2022-09-15T19:22:33.554Z,9.42
2022-09-15T19:25:00.139Z,9.36
2022-09-15T19:27:26.954Z,9.31
2022-09-15T19:29:53.496Z,9.31
2022-09-15T19:32:21.016Z,9.33
2022-09-15T19:34:50.019Z,9.35
2022-09-15T19:37:18.973Z,9.36
2022-09-15T19:39:46.280Z,9.39
2022-09-15T19:42:13.278Z,9.40
2022-09-15T19:44:40.921Z,9.38
2022-09-15T19:47:07.662Z,9.35
2022-09-15T19:49:34.253Z,9.31
2022-09-15T19:52:00.795Z,9.30
2022-09-15T19:54:28.841Z,9.27
2022-09-15T19:56:56.081Z,9.25
2022-09-15T19:59:25.301Z,9.24
2022-09-15T20:01:54.083Z,9.20
2022-09-15T20:04:20.962Z,9.16
2022-09-15T20:06:47.521Z,9.14
2022-09-15T20:09:15.184Z,9.09
2022-09-15T20:11:41.801Z,9.08
2022-09-15T20:14:08.420Z,9.08
2022-09-15T20:16:35.226Z,9.07
2022-09-15T20:19:04.000Z,9.06
2022-09-15T20:21:49.169Z,9.07
2022-09-15T20:24:16.981Z,9.05
2022-09-15T20:26:43.563Z,9.05
2022-09-15T20:29:10.695Z,9.07
2022-09-15T20:31:37.368Z,9.14
2022-09-15T20:34:04.172Z,9.22
2022-09-15T20:36:35.551Z,9.27
2022-09-15T20:39:03.373Z,9.29
2022-09-15T20:41:31.943Z,9.26
2022-09-15T20:43:58.874Z,9.24
2022-09-15T20:46:25.859Z,9.21
2022-09-15T20:48:52.606Z,9.20
2022-09-15T20:51:21.530Z,9.23
2022-09-15T20:53:49.232Z,9.24
2022-09-15T20:56:16.385Z,9.25
2022-09-15T20:58:43.419Z,9.29
2022-09-15T21:01:11.527Z,9.27
2022-09-15T21:03:39.057Z,9.28
2022-09-15T21:06:10.066Z,9.25
2022-09-15T21:08:36.770Z,9.24
2022-09-15T21:11:04.994Z,9.28
2022-09-15T21:13:33.759Z,9.35
2022-09-15T21:16:02.333Z,9.35
2022-09-15T21:18:34.153Z,9.38
2022-09-15T21:21:01.917Z,9.42
2022-09-15T21:23:33.078Z,9.47
2022-09-15T21:26:02.157Z,9.47
2022-09-15T21:28:28.950Z,9.48
2022-09-15T21:31:03.010Z,9.53
2022-09-15T21:33:29.639Z,9.53
2022-09-15T21:36:20.835Z,9.49
2022-09-15T21:38:47.948Z,9.44
2022-09-15T21:41:15.866Z,9.39
2022-09-15T21:43:43.633Z,9.36
2022-09-15T21:46:12.827Z,9.36
2022-09-15T21:48:39.906Z,9.47
2022-09-15T21:51:07.230Z,9.50
2022-09-15T21:53:37.069Z,9.48
2022-09-15T21:56:04.592Z,9.43
2022-09-15T21:58:39.039Z,9.41
2022-09-15T22:01:09.706Z,9.42
2022-09-15T22:03:37.641Z,9.44
2022-09-15T22:06:04.221Z,9.40
2022-09-15T22:08:31.153Z,9.38
2022-09-15T22:11:01.201Z,9.41
2022-09-15T22:13:28.348Z,9.44
2022-09-15T22:16:15.423Z,9.43
2022-09-15T22:18:42.919Z,9.41
2022-09-15T22:21:11.618Z,9.38
2022-09-15T22:23:38.741Z,9.36
2022-09-15T22:26:07.629Z,9.36
2022-09-15T22:28:34.466Z,9.33
2022-09-15T22:31:01.978Z,9.27
2022-09-15T22:33:29.099Z,9.26
2022-09-15T22:35:57.063Z,9.25
2022-09-15T22:38:24.225Z,9.22
2022-09-15T22:40:51.032Z,9.22
2022-09-15T22:43:17.770Z,9.21
2022-09-15T22:45:44.385Z,9.19
2022-09-15T22:48:10.972Z,9.17
2022-09-15T22:50:37.534Z,9.14
2022-09-15T22:53:04.152Z,9.10
2022-09-15T22:55:31.322Z,9.08
2022-09-15T22:57:57.938Z,9.07
2022-09-15T23:00:24.826Z,9.03
2022-09-15T23:02:51.938Z,8.98
2022-09-15T23:05:18.480Z,8.95
2022-09-15T23:07:45.102Z,8.89
2022-09-15T23:10:11.925Z,8.88
2022-09-15T23:12:38.912Z,8.85
2022-09-15T23:15:06.075Z,8.82
2022-09-15T23:17:34.191Z,8.81
2022-09-15T23:20:01.073Z,8.76
2022-09-15T23:22:27.715Z,8.72
2022-09-15T23:24:54.274Z,8.69
2022-09-15T23:27:20.850Z,8.69
2022-09-15T23:29:47.550Z,8.66
2022-09-15T23:32:14.170Z,8.65
2022-09-15T23:34:40.882Z,8.62
2022-09-15T23:37:07.474Z,8.58
2022-09-15T23:39:34.171Z,8.55
2022-09-15T23:42:01.359Z,8.46
2022-09-15T23:44:27.991Z,8.37
2022-09-15T23:46:54.623Z,8.34
2022-09-15T23:49:21.236Z,8.29
2022-09-15T23:51:47.775Z,8.26
2022-09-15T23:54:14.443Z,8.20
2022-09-15T23:56:41.078Z,8.15
2022-09-15T23:59:07.636Z,8.11
